sensor_id;sensor_type;location;lat;lon;timestamp;temperature;humidity
43528;DHT22;52359;42.658;23.320;2023-07-31T11:09:27;33.50;86.70
43528;DHT22;52359;42.658;23.320;2023-07-31T11:11:53;33.80;81.50
43528;DHT22;52359;42.658;23.320;2023-07-31T11:14:20;32.60;79.70
43528;DHT22;52359;42.658;23.320;2023-07-31T11:16:46;32.50;80.10
43528;DHT22;52359;42.658;23.320;2023-07-31T11:19:14;32.20;80.70
43528;DHT22;52359;42.658;23.320;2023-07-31T11:24:06;33.30;85.80
43528;DHT22;52359;42.658;23.320;2023-07-31T11:26:32;33.80;77.80
43528;DHT22;52359;42.658;23.320;2023-07-31T11:31:23;32.80;80.70
43528;DHT22;52359;42.658;23.320;2023-07-31T12:25:41;31.60;87.60
43528;DHT22;52359;42.658;23.320;2023-07-31T12:33:11;30.70;90.10
43528;DHT22;52359;42.658;23.320;2023-07-31T12:35:40;30.30;88.00
43528;DHT22;52359;42.658;23.320;2023-07-31T12:38:06;30.30;88.80
43528;DHT22;52359;42.658;23.320;2023-07-31T12:40:32;30.30;89.30
43528;DHT22;52359;42.658;23.320;2023-07-31T12:43:00;30.20;87.40
43528;DHT22;52359;42.658;23.320;2023-07-31T12:45:26;30.40;90.00
43528;DHT22;52359;42.658;23.320;2023-07-31T12:47:52;30.30;87.80
43528;DHT22;52359;42.658;23.320;2023-07-31T12:50:18;29.90;87.50
43528;DHT22;52359;42.658;23.320;2023-07-31T14:13:07;29.40;92.40
43528;DHT22;52359;42.658;23.320;2023-07-31T14:15:32;29.30;90.80
43528;DHT22;52359;42.658;23.320;2023-07-31T14:18:01;29.40;90.20
43528;DHT22;52359;42.658;23.320;2023-07-31T14:20:26;29.50;87.80
43528;DHT22;52359;42.658;23.320;2023-07-31T14:22:52;29.30;84.70
43528;DHT22;52359;42.658;23.320;2023-07-31T14:25:18;29.00;84.00
43528;DHT22;52359;42.658;23.320;2023-07-31T14:27:43;28.90;83.90
43528;DHT22;52359;42.658;23.320;2023-07-31T14:30:09;28.90;84.20
43528;DHT22;52359;42.658;23.320;2023-07-31T14:32:35;29.00;83.80
43528;DHT22;52359;42.658;23.320;2023-07-31T14:35:03;29.10;84.10
43528;DHT22;52359;42.658;23.320;2023-07-31T14:37:39;29.10;84.60
43528;DHT22;52359;42.658;23.320;2023-07-31T14:40:06;29.20;84.40
43528;DHT22;52359;42.658;23.320;2023-07-31T14:42:33;29.20;84.00
43528;DHT22;52359;42.658;23.320;2023-07-31T14:44:59;29.00;83.60
43528;DHT22;52359;42.658;23.320;2023-07-31T14:47:24;28.90;84.10
43528;DHT22;52359;42.658;23.320;2023-07-31T14:49:50;29.00;84.80
43528;DHT22;52359;42.658;23.320;2023-07-31T14:52:16;28.80;85.10
43528;DHT22;52359;42.658;23.320;2023-07-31T14:54:41;28.80;85.90
43528;DHT22;52359;42.658;23.320;2023-07-31T14:57:07;28.80;86.80
43528;DHT22;52359;42.658;23.320;2023-07-31T14:59:33;28.60;86.30
43528;DHT22;52359;42.658;23.320;2023-07-31T15:01:59;28.60;86.90
43528;DHT22;52359;42.658;23.320;2023-07-31T15:04:24;28.60;87.80
43528;DHT22;52359;42.658;23.320;2023-07-31T15:11:42;28.40;91.20
43528;DHT22;52359;42.658;23.320;2023-07-31T15:14:08;28.50;92.20
43528;DHT22;52359;42.658;23.320;2023-07-31T15:16:34;28.30;90.40
43528;DHT22;52359;42.658;23.320;2023-07-31T15:18:59;28.10;88.60
43528;DHT22;52359;42.658;23.320;2023-07-31T15:21:25;28.10;88.50
43528;DHT22;52359;42.658;23.320;2023-07-31T15:23:51;28.10;88.50
43528;DHT22;52359;42.658;23.320;2023-07-31T15:26:16;28.20;87.90
43528;DHT22;52359;42.658;23.320;2023-07-31T15:28:42;28.00;88.50
43528;DHT22;52359;42.658;23.320;2023-07-31T15:31:08;28.00;89.80
43528;DHT22;52359;42.658;23.320;2023-07-31T15:33:34;28.00;89.80
43528;DHT22;52359;42.658;23.320;2023-07-31T15:36:00;28.00;89.70
43528;DHT22;52359;42.658;23.320;2023-07-31T15:38:25;27.90;89.20
43528;DHT22;52359;42.658;23.320;2023-07-31T15:40:51;27.70;90.10
43528;DHT22;52359;42.658;23.320;2023-07-31T15:43:17;27.40;90.20
43528;DHT22;52359;42.658;23.320;2023-07-31T15:45:43;27.50;88.80
43528;DHT22;52359;42.658;23.320;2023-07-31T15:48:09;27.40;87.70
43528;DHT22;52359;42.658;23.320;2023-07-31T15:50:34;27.40;87.40
43528;DHT22;52359;42.658;23.320;2023-07-31T15:55:44;27.20;88.10
43528;DHT22;52359;42.658;23.320;2023-07-31T15:58:10;27.10;89.10
43528;DHT22;52359;42.658;23.320;2023-07-31T16:00:35;27.10;89.00
43528;DHT22;52359;42.658;23.320;2023-07-31T16:03:01;27.10;88.90
43528;DHT22;52359;42.658;23.320;2023-07-31T16:05:27;27.00;89.10
43528;DHT22;52359;42.658;23.320;2023-07-31T16:07:52;26.90;88.90
43528;DHT22;52359;42.658;23.320;2023-07-31T16:10:18;26.80;88.90
43528;DHT22;52359;42.658;23.320;2023-07-31T16:12:44;26.70;89.20
43528;DHT22;52359;42.658;23.320;2023-07-31T16:15:09;26.70;89.40
43528;DHT22;52359;42.658;23.320;2023-07-31T16:17:35;26.70;89.60
43528;DHT22;52359;42.658;23.320;2023-07-31T16:20:01;26.60;89.50
43528;DHT22;52359;42.658;23.320;2023-07-31T16:22:27;26.50;90.10
43528;DHT22;52359;42.658;23.320;2023-07-31T16:24:52;26.60;89.90
43528;DHT22;52359;42.658;23.320;2023-07-31T16:27:18;26.60;89.80
43528;DHT22;52359;42.658;23.320;2023-07-31T16:29:45;26.40;90.10
43528;DHT22;52359;42.658;23.320;2023-07-31T16:32:11;26.40;90.50
43528;DHT22;52359;42.658;23.320;2023-07-31T16:34:37;26.30;90.40
43528;DHT22;52359;42.658;23.320;2023-07-31T16:37:03;26.50;90.40
43528;DHT22;52359;42.658;23.320;2023-07-31T16:44:26;26.40;90.20
43528;DHT22;52359;42.658;23.320;2023-07-31T16:46:52;26.40;90.70
43528;DHT22;52359;42.658;23.320;2023-07-31T16:49:17;26.30;88.10
43528;DHT22;52359;42.658;23.320;2023-07-31T16:51:43;26.20;88.40
43528;DHT22;52359;42.658;23.320;2023-07-31T16:54:09;26.20;88.60
43528;DHT22;52359;42.658;23.320;2023-07-31T16:56:34;26.10;89.00
43528;DHT22;52359;42.658;23.320;2023-07-31T16:59:00;26.10;89.10
43528;DHT22;52359;42.658;23.320;2023-07-31T17:01:25;26.10;88.70
43528;DHT22;52359;42.658;23.320;2023-07-31T17:03:56;26.10;88.30
43528;DHT22;52359;42.658;23.320;2023-07-31T17:06:22;26.10;88.30
43528;DHT22;52359;42.658;23.320;2023-07-31T17:08:48;26.00;88.20
43528;DHT22;52359;42.658;23.320;2023-07-31T17:11:13;26.00;88.20
43528;DHT22;52359;42.658;23.320;2023-07-31T17:13:39;26.10;87.90
43528;DHT22;52359;42.658;23.320;2023-07-31T17:16:05;26.00;87.00
43528;DHT22;52359;42.658;23.320;2023-07-31T17:18:31;26.00;87.60
43528;DHT22;52359;42.658;23.320;2023-07-31T17:20:57;26.00;87.30
43528;DHT22;52359;42.658;23.320;2023-07-31T17:23:22;25.90;87.30
43528;DHT22;52359;42.658;23.320;2023-07-31T17:25:48;25.90;87.50
43528;DHT22;52359;42.658;23.320;2023-07-31T17:28:13;25.80;88.00
43528;DHT22;52359;42.658;23.320;2023-07-31T17:30:39;25.80;88.10
43528;DHT22;52359;42.658;23.320;2023-07-31T17:33:05;25.80;88.30
43528;DHT22;52359;42.658;23.320;2023-07-31T17:35:30;25.70;88.80
43528;DHT22;52359;42.658;23.320;2023-07-31T17:37:58;25.60;89.10
43528;DHT22;52359;42.658;23.320;2023-07-31T17:40:23;25.60;90.10
43528;DHT22;52359;42.658;23.320;2023-07-31T17:42:49;25.60;90.40
43528;DHT22;52359;42.658;23.320;2023-07-31T17:45:14;25.50;90.50
43528;DHT22;52359;42.658;23.320;2023-07-31T17:47:43;25.50;90.50
43528;DHT22;52359;42.658;23.320;2023-07-31T17:50:09;25.50;90.60
43528;DHT22;52359;42.658;23.320;2023-07-31T17:52:35;25.40;90.70
43528;DHT22;52359;42.658;23.320;2023-07-31T17:55:02;25.40;90.80
43528;DHT22;52359;42.658;23.320;2023-07-31T17:57:27;25.30;90.90
43528;DHT22;52359;42.658;23.320;2023-07-31T17:59:53;25.30;91.30
43528;DHT22;52359;42.658;23.320;2023-07-31T18:02:19;25.30;91.40
43528;DHT22;52359;42.658;23.320;2023-07-31T18:04:45;25.20;91.40
43528;DHT22;52359;42.658;23.320;2023-07-31T18:07:11;25.20;91.30
43528;DHT22;52359;42.658;23.320;2023-07-31T18:09:40;25.20;91.40
43528;DHT22;52359;42.658;23.320;2023-07-31T18:12:07;25.10;91.30
43528;DHT22;52359;42.658;23.320;2023-07-31T18:14:33;25.00;91.30
43528;DHT22;52359;42.658;23.320;2023-07-31T18:17:01;25.00;91.50
43528;DHT22;52359;42.658;23.320;2023-07-31T18:19:28;25.10;91.70
43528;DHT22;52359;42.658;23.320;2023-07-31T18:21:54;25.00;91.60
43528;DHT22;52359;42.658;23.320;2023-07-31T18:24:19;25.00;91.60
43528;DHT22;52359;42.658;23.320;2023-07-31T18:26:45;24.90;91.90
43528;DHT22;52359;42.658;23.320;2023-07-31T18:29:11;24.90;91.90
43528;DHT22;52359;42.658;23.320;2023-07-31T18:31:36;24.90;92.10
43528;DHT22;52359;42.658;23.320;2023-07-31T18:34:02;24.70;92.30
43528;DHT22;52359;42.658;23.320;2023-07-31T18:36:28;24.60;92.50
43528;DHT22;52359;42.658;23.320;2023-07-31T18:38:53;24.70;92.90
43528;DHT22;52359;42.658;23.320;2023-07-31T18:41:19;24.60;93.00
43528;DHT22;52359;42.658;23.320;2023-07-31T18:43:45;24.60;93.30
43528;DHT22;52359;42.658;23.320;2023-07-31T18:46:11;24.60;93.30
43528;DHT22;52359;42.658;23.320;2023-07-31T18:48:37;24.50;93.70
43528;DHT22;52359;42.658;23.320;2023-07-31T18:51:03;24.50;93.70
43528;DHT22;52359;42.658;23.320;2023-07-31T18:53:29;24.40;93.50
43528;DHT22;52359;42.658;23.320;2023-07-31T18:55:55;24.40;93.50
43528;DHT22;52359;42.658;23.320;2023-07-31T18:58:21;24.30;93.60
43528;DHT22;52359;42.658;23.320;2023-07-31T19:27:34;24.00;94.80
